sensor_id;sensor_type;location;lat;lon;timestamp;pressure;altitude;pressure_sealevel;temperature;humidity
5522;BME280;2783;48.730;8.006;2022-10-17T00:01:36;100529.88;;;14.56;100.00
5522;BME280;2783;48.730;8.006;2022-10-17T00:04:02;100517.53;;;14.52;100.00
5522;BME280;2783;48.730;8.006;2022-10-17T00:06:27;100529.97;;;14.53;100.00
5522;BME280;2783;48.730;8.006;2022-10-17T00:08:53;100532.78;;;14.50;100.00
5522;BME280;2783;48.730;8.006;2022-10-17T00:11:21;100522.34;;;14.44;100.00
5522;BME280;2783;48.730;8.006;2022-10-17T00:13:48;100539.22;;;14.46;100.00
5522;BME280;2783;48.730;8.006;2022-10-17T00:16:22;100536.53;;;14.46;100.00
5522;BME280;2783;48.730;8.006;2022-10-17T00:18:47;100538.25;;;14.47;100.00
5522;BME280;2783;48.730;8.006;2022-10-17T00:21:18;100542.78;;;14.45;100.00
5522;BME280;2783;48.730;8.006;2022-10-17T00:23:44;100546.28;;;14.47;100.00
5522;BME280;2783;48.730;8.006;2022-10-17T00:26:10;100544.31;;;14.52;100.00
5522;BME280;2783;48.730;8.006;2022-10-17T00:28:35;100544.03;;;14.58;100.00
5522;BME280;2783;48.730;8.006;2022-10-17T00:31:03;100546.78;;;14.57;100.00
5522;BME280;2783;48.730;8.006;2022-10-17T00:33:31;100547.88;;;14.52;100.00
5522;BME280;2783;48.730;8.006;2022-10-17T00:36:07;100553.34;;;14.49;100.00
5522;BME280;2783;48.730;8.006;2022-10-17T00:38:33;100553.50;;;14.45;100.00
5522;BME280;2783;48.730;8.006;2022-10-17T00:40:59;100559.06;;;14.40;100.00
5522;BME280;2783;48.730;8.006;2022-10-17T00:43:25;100555.81;;;14.32;100.00
5522;BME280;2783;48.730;8.006;2022-10-17T00:45:51;100555.75;;;14.34;100.00
5522;BME280;2783;48.730;8.006;2022-10-17T00:48:17;100563.00;;;14.30;100.00
5522;BME280;2783;48.730;8.006;2022-10-17T00:50:45;100556.09;;;14.25;100.00
5522;BME280;2783;48.730;8.006;2022-10-17T00:53:13;100551.72;;;14.22;100.00
5522;BME280;2783;48.730;8.006;2022-10-17T00:55:50;100552.59;;;14.23;100.00
5522;BME280;2783;48.730;8.006;2022-10-17T00:58:17;100562.31;;;14.25;100.00
5522;BME280;2783;48.730;8.006;2022-10-17T01:00:45;100547.25;;;14.23;100.00
5522;BME280;2783;48.730;8.006;2022-10-17T01:03:11;100567.66;;;14.25;100.00
5522;BME280;2783;48.730;8.006;2022-10-17T01:05:38;100569.47;;;14.25;100.00
5522;BME280;2783;48.730;8.006;2022-10-17T01:08:05;100564.94;;;14.27;100.00
5522;BME280;2783;48.730;8.006;2022-10-17T01:10:45;100565.03;;;14.24;100.00
5522;BME280;2783;48.730;8.006;2022-10-17T01:13:20;100571.25;;;14.24;100.00
5522;BME280;2783;48.730;8.006;2022-10-17T01:15:51;100581.09;;;14.24;100.00
5522;BME280;2783;48.730;8.006;2022-10-17T01:21:09;100572.34;;;14.19;100.00
5522;BME280;2783;48.730;8.006;2022-10-17T01:32:39;100564.78;;;14.07;100.00
5522;BME280;2783;48.730;8.006;2022-10-17T01:35:37;100565.72;;;14.06;100.00
5522;BME280;2783;48.730;8.006;2022-10-17T01:38:12;100563.19;;;14.03;100.00
5522;BME280;2783;48.730;8.006;2022-10-17T01:40:49;100558.00;;;13.98;100.00
5522;BME280;2783;48.730;8.006;2022-10-17T01:45:52;100573.28;;;13.95;100.00
5522;BME280;2783;48.730;8.006;2022-10-17T01:48:28;100564.34;;;13.96;100.00
5522;BME280;2783;48.730;8.006;2022-10-17T01:51:02;100562.72;;;13.92;100.00
5522;BME280;2783;48.730;8.006;2022-10-17T01:53:33;100554.97;;;13.84;100.00
5522;BME280;2783;48.730;8.006;2022-10-17T01:56:02;100561.19;;;13.85;100.00
5522;BME280;2783;48.730;8.006;2022-10-17T01:58:32;100563.88;;;13.85;100.00
5522;BME280;2783;48.730;8.006;2022-10-17T02:01:02;100564.75;;;13.85;100.00
5522;BME280;2783;48.730;8.006;2022-10-17T02:03:30;100561.19;;;13.85;100.00
5522;BME280;2783;48.730;8.006;2022-10-17T02:05:56;100556.81;;;13.82;100.00
5522;BME280;2783;48.730;8.006;2022-10-17T02:08:26;100550.75;;;13.79;100.00
5522;BME280;2783;48.730;8.006;2022-10-17T02:11:05;100557.81;;;13.80;100.00
5522;BME280;2783;48.730;8.006;2022-10-17T02:16:24;100557.94;;;13.77;100.00
5522;BME280;2783;48.730;8.006;2022-10-17T02:21:49;100557.94;;;13.77;100.00
5522;BME280;2783;48.730;8.006;2022-10-17T02:27:41;100546.66;;;13.69;100.00
5522;BME280;2783;48.730;8.006;2022-10-17T02:30:18;100545.94;;;13.64;100.00
5522;BME280;2783;48.730;8.006;2022-10-17T02:32:53;100547.81;;;13.62;100.00
5522;BME280;2783;48.730;8.006;2022-10-17T02:35:19;100557.78;;;13.57;100.00
5522;BME280;2783;48.730;8.006;2022-10-17T02:37:50;100555.22;;;13.54;100.00
5522;BME280;2783;48.730;8.006;2022-10-17T02:40:17;100565.75;;;13.58;100.00
5522;BME280;2783;48.730;8.006;2022-10-17T02:42:45;100564.72;;;13.62;100.00
5522;BME280;2783;48.730;8.006;2022-10-17T02:45:12;100561.28;;;13.59;100.00
5522;BME280;2783;48.730;8.006;2022-10-17T02:47:49;100563.13;;;13.57;100.00
5522;BME280;2783;48.730;8.006;2022-10-17T02:50:17;100565.91;;;13.54;100.00
5522;BME280;2783;48.730;8.006;2022-10-17T02:52:50;100571.25;;;13.54;100.00
5522;BME280;2783;48.730;8.006;2022-10-17T02:55:19;100563.38;;;13.51;100.00
5522;BME280;2783;48.730;8.006;2022-10-17T02:57:49;100565.31;;;13.46;100.00
5522;BME280;2783;48.730;8.006;2022-10-17T03:00:17;100565.31;;;13.46;100.00
5522;BME280;2783;48.730;8.006;2022-10-17T03:02:49;100560.88;;;13.45;100.00
5522;BME280;2783;48.730;8.006;2022-10-17T03:07:44;100555.59;;;13.43;100.00
5522;BME280;2783;48.730;8.006;2022-10-17T03:10:10;100566.16;;;13.46;100.00
5522;BME280;2783;48.730;8.006;2022-10-17T03:12:36;100563.69;;;13.42;100.00
5522;BME280;2783;48.730;8.006;2022-10-17T03:15:02;100581.56;;;13.40;100.00
5522;BME280;2783;48.730;8.006;2022-10-17T03:17:28;100571.91;;;13.36;100.00
5522;BME280;2783;48.730;8.006;2022-10-17T03:19:54;100575.59;;;13.32;100.00
5522;BME280;2783;48.730;8.006;2022-10-17T03:22:21;100575.59;;;13.32;100.00
5522;BME280;2783;48.730;8.006;2022-10-17T03:24:46;100571.31;;;13.28;100.00
5522;BME280;2783;48.730;8.006;2022-10-17T03:27:11;100577.69;;;13.23;100.00
5522;BME280;2783;48.730;8.006;2022-10-17T03:29:37;100572.34;;;13.23;100.00
5522;BME280;2783;48.730;8.006;2022-10-17T03:32:02;100571.50;;;13.21;100.00
5522;BME280;2783;48.730;8.006;2022-10-17T03:34:28;100574.19;;;13.21;100.00
5522;BME280;2783;48.730;8.006;2022-10-17T03:36:53;100571.56;;;13.20;100.00
5522;BME280;2783;48.730;8.006;2022-10-17T03:39:18;100582.25;;;13.20;100.00
5522;BME280;2783;48.730;8.006;2022-10-17T03:41:44;100576.91;;;13.20;100.00
5522;BME280;2783;48.730;8.006;2022-10-17T03:44:09;100585.09;;;13.15;100.00
5522;BME280;2783;48.730;8.006;2022-10-17T03:46:35;100589.66;;;13.12;100.00
5522;BME280;2783;48.730;8.006;2022-10-17T03:49:00;100588.00;;;13.08;100.00
5522;BME280;2783;48.730;8.006;2022-10-17T03:51:26;100595.22;;;13.06;100.00
5522;BME280;2783;48.730;8.006;2022-10-17T03:53:51;100599.13;;;12.94;100.00
5522;BME280;2783;48.730;8.006;2022-10-17T03:56:19;100592.91;;;12.94;100.00
5522;BME280;2783;48.730;8.006;2022-10-17T03:58:45;100594.59;;;12.96;100.00
5522;BME280;2783;48.730;8.006;2022-10-17T04:01:12;100606.16;;;12.97;100.00
5522;BME280;2783;48.730;8.006;2022-10-17T04:03:39;100603.53;;;12.95;100.00
5522;BME280;2783;48.730;8.006;2022-10-17T04:06:05;100610.72;;;12.93;100.00
5522;BME280;2783;48.730;8.006;2022-10-17T04:08:32;100608.97;;;12.92;100.00
5522;BME280;2783;48.730;8.006;2022-10-17T04:11:07;100609.91;;;12.91;100.00
5522;BME280;2783;48.730;8.006;2022-10-17T04:13:33;100629.41;;;12.93;100.00
5522;BME280;2783;48.730;8.006;2022-10-17T04:16:02;100624.00;;;12.95;100.00
5522;BME280;2783;48.730;8.006;2022-10-17T04:18:28;100620.47;;;12.94;100.00
5522;BME280;2783;48.730;8.006;2022-10-17T04:20:53;100620.53;;;12.93;100.00
5522;BME280;2783;48.730;8.006;2022-10-17T04:23:19;100617.81;;;12.94;100.00
5522;BME280;2783;48.730;8.006;2022-10-17T04:25:44;100624.06;;;12.93;100.00
5522;BME280;2783;48.730;8.006;2022-10-17T04:28:10;100624.78;;;12.98;100.00
5522;BME280;2783;48.730;8.006;2022-10-17T04:30:35;100621.03;;;13.05;100.00
5522;BME280;2783;48.730;8.006;2022-10-17T04:33:01;100625.50;;;13.05;100.00
5522;BME280;2783;48.730;8.006;2022-10-17T04:35:27;100623.75;;;13.04;100.00
5522;BME280;2783;48.730;8.006;2022-10-17T04:37:52;100632.66;;;13.04;100.00
5522;BME280;2783;48.730;8.006;2022-10-17T04:40:17;100639.63;;;13.08;100.00
5522;BME280;2783;48.730;8.006;2022-10-17T04:42:43;100642.28;;;13.08;100.00
5522;BME280;2783;48.730;8.006;2022-10-17T04:45:08;100644.97;;;13.08;100.00
5522;BME280;2783;48.730;8.006;2022-10-17T04:47:34;100638.75;;;13.08;100.00
5522;BME280;2783;48.730;8.006;2022-10-17T04:49:59;100638.06;;;13.01;100.00
5522;BME280;2783;48.730;8.006;2022-10-17T04:52:25;100637.22;;;13.01;100.00
5522;BME280;2783;48.730;8.006;2022-10-17T04:54:50;100629.22;;;13.01;100.00
5522;BME280;2783;48.730;8.006;2022-10-17T04:57:17;100626.47;;;13.02;100.00
5522;BME280;2783;48.730;8.006;2022-10-17T04:59:43;100629.66;;;13.13;100.00
5522;BME280;2783;48.730;8.006;2022-10-17T05:02:08;100632.94;;;13.21;100.00
5522;BME280;2783;48.730;8.006;2022-10-17T05:04:34;100637.47;;;13.19;100.00
5522;BME280;2783;48.730;8.006;2022-10-17T05:06:59;100630.44;;;13.17;100.00
5522;BME280;2783;48.730;8.006;2022-10-17T05:09:24;100637.78;;;13.10;100.00
5522;BME280;2783;48.730;8.006;2022-10-17T05:11:50;100638.91;;;13.03;100.00
5522;BME280;2783;48.730;8.006;2022-10-17T05:14:15;100639.97;;;12.96;100.00
5522;BME280;2783;48.730;8.006;2022-10-17T05:16:41;100640.19;;;12.90;100.00
5522;BME280;2783;48.730;8.006;2022-10-17T05:19:06;100645.56;;;12.89;100.00
5522;BME280;2783;48.730;8.006;2022-10-17T05:21:32;100644.00;;;12.82;100.00
5522;BME280;2783;48.730;8.006;2022-10-17T05:23:57;100648.50;;;12.81;100.00
5522;BME280;2783;48.730;8.006;2022-10-17T05:26:23;100649.56;;;12.76;100.00
5522;BME280;2783;48.730;8.006;2022-10-17T05:28:49;100651.41;;;12.74;100.00
5522;BME280;2783;48.730;8.006;2022-10-17T05:31:16;100657.50;;;12.77;100.00
5522;BME280;2783;48.730;8.006;2022-10-17T05:33:42;100648.69;;;12.75;100.00
5522;BME280;2783;48.730;8.006;2022-10-17T05:36:07;100653.06;;;12.78;100.00
5522;BME280;2783;48.730;8.006;2022-10-17T05:38:33;100650.25;;;12.82;100.00
5522;BME280;2783;48.730;8.006;2022-10-17T05:41:00;100652.19;;;12.77;100.00
5522;BME280;2783;48.730;8.006;2022-10-17T05:43:26;100661.97;;;12.77;100.00
5522;BME280;2783;48.730;8.006;2022-10-17T05:45:52;100652.56;;;12.65;100.00
5522;BME280;2783;48.730;8.006;2022-10-17T05:48:18;100668.50;;;12.68;100.00
5522;BME280;2783;48.730;8.006;2022-10-17T05:50:44;100668.41;;;12.71;100.00
5522;BME280;2783;48.730;8.006;2022-10-17T05:53:10;100666.56;;;12.72;100.00
5522;BME280;2783;48.730;8.006;2022-10-17T05:55:35;100655.94;;;12.70;100.00
5522;BME280;2783;48.730;8.006;2022-10-17T05:58:01;100663.69;;;12.79;100.00
5522;BME280;2783;48.730;8.006;2022-10-17T06:00:26;100667.16;;;12.83;100.00
5522;BME280;2783;48.730;8.006;2022-10-17T06:02:52;100684.69;;;12.91;100.00
5522;BME280;2783;48.730;8.006;2022-10-17T06:05:18;100665.81;;;12.96;100.00
5522;BME280;2783;48.730;8.006;2022-10-17T06:07:43;100678.13;;;13.01;100.00
5522;BME280;2783;48.730;8.006;2022-10-17T06:10:09;100685.13;;;13.05;100.00
5522;BME280;2783;48.730;8.006;2022-10-17T06:12:40;100685.91;;;13.09;100.00
5522;BME280;2783;48.730;8.006;2022-10-17T06:15:06;100693.88;;;13.10;100.00
5522;BME280;2783;48.730;8.006;2022-10-17T06:17:32;100684.06;;;13.11;100.00
5522;BME280;2783;48.730;8.006;2022-10-17T06:19:57;100691.00;;;13.16;100.00
5522;BME280;2783;48.730;8.006;2022-10-17T06:22:23;100698.84;;;13.23;100.00
5522;BME280;2783;48.730;8.006;2022-10-17T06:24:48;100697.63;;;13.31;100.00
5522;BME280;2783;48.730;8.006;2022-10-17T06:27:14;100708.03;;;13.40;100.00
5522;BME280;2783;48.730;8.006;2022-10-17T06:29:39;100704.06;;;13.52;100.00
5522;BME280;2783;48.730;8.006;2022-10-17T06:32:05;100716.00;;;13.68;100.00
5522;BME280;2783;48.730;8.006;2022-10-17T06:34:31;100714.75;;;13.78;100.00
5522;BME280;2783;48.730;8.006;2022-10-17T06:36:56;100707.13;;;13.92;100.00
5522;BME280;2783;48.730;8.006;2022-10-17T06:39:22;100719.16;;;14.05;100.00
5522;BME280;2783;48.730;8.006;2022-10-17T06:41:48;100719.34;;;14.23;100.00
5522;BME280;2783;48.730;8.006;2022-10-17T06:44:14;100713.53;;;14.37;100.00
5522;BME280;2783;48.730;8.006;2022-10-17T06:46:40;100731.38;;;14.61;100.00
5522;BME280;2783;48.730;8.006;2022-10-17T06:49:06;100723.66;;;14.75;100.00
5522;BME280;2783;48.730;8.006;2022-10-17T06:51:35;100739.00;;;15.16;100.00
5522;BME280;2783;48.730;8.006;2022-10-17T06:54:01;100727.50;;;16.78;100.00
5522;BME280;2783;48.730;8.006;2022-10-17T06:56:27;100742.91;;;18.53;100.00
5522;BME280;2783;48.730;8.006;2022-10-17T06:58:53;100725.59;;;19.67;100.00
5522;BME280;2783;48.730;8.006;2022-10-17T07:01:19;100730.88;;;20.43;95.28
5522;BME280;2783;48.730;8.006;2022-10-17T07:03:47;100739.63;;;21.05;87.35
5522;BME280;2783;48.730;8.006;2022-10-17T07:06:13;100736.63;;;22.03;79.69
5522;BME280;2783;48.730;8.006;2022-10-17T07:08:42;100747.22;;;22.33;72.87
5522;BME280;2783;48.730;8.006;2022-10-17T07:11:16;100734.34;;;22.49;72.19
5522;BME280;2783;48.730;8.006;2022-10-17T07:13:42;100754.34;;;22.98;68.62
5522;BME280;2783;48.730;8.006;2022-10-17T07:16:08;100753.75;;;23.05;65.67
5522;BME280;2783;48.730;8.006;2022-10-17T07:18:34;100760.84;;;22.70;66.36
5522;BME280;2783;48.730;8.006;2022-10-17T07:21:00;100756.16;;;22.72;67.33
5522;BME280;2783;48.730;8.006;2022-10-17T07:23:25;100762.13;;;23.02;66.65
5522;BME280;2783;48.730;8.006;2022-10-17T07:25:51;100764.69;;;23.41;64.95
5522;BME280;2783;48.730;8.006;2022-10-17T07:28:17;100754.06;;;23.26;63.17
5522;BME280;2783;48.730;8.006;2022-10-17T07:30:43;100778.50;;;23.38;64.26
5522;BME280;2783;48.730;8.006;2022-10-17T07:33:09;100769.72;;;23.95;62.68
5522;BME280;2783;48.730;8.006;2022-10-17T07:35:36;100774.38;;;23.93;60.78
5522;BME280;2783;48.730;8.006;2022-10-17T07:38:02;100778.66;;;23.61;62.70
5522;BME280;2783;48.730;8.006;2022-10-17T07:40:27;100765.34;;;24.05;61.64
5522;BME280;2783;48.730;8.006;2022-10-17T07:42:53;100776.13;;;25.31;59.22
5522;BME280;2783;48.730;8.006;2022-10-17T07:45:20;100774.63;;;26.45;53.22
5522;BME280;2783;48.730;8.006;2022-10-17T07:47:47;100782.00;;;26.34;53.20
5522;BME280;2783;48.730;8.006;2022-10-17T07:50:13;100784.66;;;25.70;53.94
5522;BME280;2783;48.730;8.006;2022-10-17T07:52:38;100792.22;;;25.34;56.51
5522;BME280;2783;48.730;8.006;2022-10-17T07:55:04;100785.06;;;25.55;56.27
5522;BME280;2783;48.730;8.006;2022-10-17T07:57:30;100780.59;;;25.65;55.29
5522;BME280;2783;48.730;8.006;2022-10-17T07:59:55;100790.50;;;25.55;56.24
5522;BME280;2783;48.730;8.006;2022-10-17T08:02:23;100787.66;;;25.45;56.82
5522;BME280;2783;48.730;8.006;2022-10-17T08:04:49;100789.22;;;26.24;56.54
5522;BME280;2783;48.730;8.006;2022-10-17T08:07:15;100792.47;;;26.90;53.55
5522;BME280;2783;48.730;8.006;2022-10-17T08:09:41;100793.59;;;27.78;50.28
5522;BME280;2783;48.730;8.006;2022-10-17T08:12:06;100792.13;;;28.23;48.43
5522;BME280;2783;48.730;8.006;2022-10-17T08:14:32;100793.75;;;27.77;48.84
5522;BME280;2783;48.730;8.006;2022-10-17T08:16:57;100792.31;;;27.12;51.10
5522;BME280;2783;48.730;8.006;2022-10-17T08:19:23;100785.03;;;26.72;52.08
5522;BME280;2783;48.730;8.006;2022-10-17T08:21:48;100793.59;;;26.67;52.95
5522;BME280;2783;48.730;8.006;2022-10-17T08:24:14;100791.69;;;26.79;52.74
5522;BME280;2783;48.730;8.006;2022-10-17T08:26:40;100790.84;;;27.29;52.11
5522;BME280;2783;48.730;8.006;2022-10-17T08:29:05;100805.03;;;28.02;50.40
5522;BME280;2783;48.730;8.006;2022-10-17T08:31:31;100797.03;;;28.58;47.82
5522;BME280;2783;48.730;8.006;2022-10-17T08:33:56;100798.59;;;28.80;46.92
5522;BME280;2783;48.730;8.006;2022-10-17T08:36:21;100798.03;;;28.76;47.62
5522;BME280;2783;48.730;8.006;2022-10-17T08:38:47;100813.88;;;28.34;47.83
5522;BME280;2783;48.730;8.006;2022-10-17T08:46:46;100810.50;;;28.02;49.79
5522;BME280;2783;48.730;8.006;2022-10-17T08:49:35;100811.97;;;28.25;49.70
5522;BME280;2783;48.730;8.006;2022-10-17T08:52:17;100812.56;;;28.29;49.55
5522;BME280;2783;48.730;8.006;2022-10-17T08:54:46;100802.59;;;27.99;51.48
5522;BME280;2783;48.730;8.006;2022-10-17T08:57:14;100804.25;;;27.81;50.97
5522;BME280;2783;48.730;8.006;2022-10-17T08:59:41;100803.50;;;27.30;52.26
5522;BME280;2783;48.730;8.006;2022-10-17T09:10:16;100808.75;;;27.22;53.38
5522;BME280;2783;48.730;8.006;2022-10-17T09:13:02;100810.38;;;27.04;53.81
5522;BME280;2783;48.730;8.006;2022-10-17T09:18:34;100803.75;;;27.27;54.68
5522;BME280;2783;48.730;8.006;2022-10-17T09:21:19;100809.06;;;27.49;53.02
5522;BME280;2783;48.730;8.006;2022-10-17T09:23:50;100800.72;;;27.51;52.65
5522;BME280;2783;48.730;8.006;2022-10-17T09:26:17;100806.53;;;27.37;53.16
5522;BME280;2783;48.730;8.006;2022-10-17T09:28:42;100806.41;;;27.38;53.62
5522;BME280;2783;48.730;8.006;2022-10-17T09:31:17;100807.38;;;27.58;53.48
5522;BME280;2783;48.730;8.006;2022-10-17T09:33:46;100802.16;;;27.55;53.13
5522;BME280;2783;48.730;8.006;2022-10-17T09:39:13;100809.72;;;27.81;53.32
5522;BME280;2783;48.730;8.006;2022-10-17T09:41:46;100813.22;;;27.93;54.56
5522;BME280;2783;48.730;8.006;2022-10-17T09:46:45;100808.34;;;28.06;52.99
5522;BME280;2783;48.730;8.006;2022-10-17T09:49:21;100799.06;;;27.78;52.48
5522;BME280;2783;48.730;8.006;2022-10-17T09:51:50;100795.06;;;27.43;53.08
5522;BME280;2783;48.730;8.006;2022-10-17T09:54:23;100787.25;;;27.78;53.16
5522;BME280;2783;48.730;8.006;2022-10-17T09:57:16;100797.94;;;27.81;52.81
5522;BME280;2783;48.730;8.006;2022-10-17T09:59:59;100805.59;;;27.96;52.25
5522;BME280;2783;48.730;8.006;2022-10-17T10:02:28;100801.56;;;27.91;54.71
5522;BME280;2783;48.730;8.006;2022-10-17T10:05:05;100809.53;;;28.22;55.21
5522;BME280;2783;48.730;8.006;2022-10-17T10:07:36;100810.41;;;28.80;51.74
5522;BME280;2783;48.730;8.006;2022-10-17T10:10:07;100815.91;;;29.36;50.64
5522;BME280;2783;48.730;8.006;2022-10-17T10:13:33;100824.78;;;29.84;49.54
5522;BME280;2783;48.730;8.006;2022-10-17T10:15:52;100820.53;;;29.99;47.31
5522;BME280;2783;48.730;8.006;2022-10-17T10:21:09;100827.00;;;30.25;47.01
5522;BME280;2783;48.730;8.006;2022-10-17T10:23:37;100825.69;;;30.29;47.41
5522;BME280;2783;48.730;8.006;2022-10-17T10:26:31;100822.22;;;30.27;46.42
5522;BME280;2783;48.730;8.006;2022-10-17T10:29:03;100824.75;;;30.56;46.41
5522;BME280;2783;48.730;8.006;2022-10-17T10:31:37;100818.38;;;30.55;48.30
5522;BME280;2783;48.730;8.006;2022-10-17T10:34:16;100830.78;;;30.24;46.77
5522;BME280;2783;48.730;8.006;2022-10-17T10:36:54;100827.22;;;30.14;47.01
5522;BME280;2783;48.730;8.006;2022-10-17T10:42:07;100817.34;;;30.21;45.91
5522;BME280;2783;48.730;8.006;2022-10-17T10:44:40;100825.94;;;30.09;45.62
5522;BME280;2783;48.730;8.006;2022-10-17T10:47:22;100820.66;;;30.42;47.89
5522;BME280;2783;48.730;8.006;2022-10-17T10:50:06;100824.56;;;30.75;45.59
5522;BME280;2783;48.730;8.006;2022-10-17T10:52:41;100818.91;;;30.76;45.32
5522;BME280;2783;48.730;8.006;2022-10-17T10:55:24;100836.78;;;31.41;45.74
5522;BME280;2783;48.730;8.006;2022-10-17T10:57:55;100838.50;;;31.76;44.28
5522;BME280;2783;48.730;8.006;2022-10-17T11:00:24;100843.66;;;32.13;44.97
5522;BME280;2783;48.730;8.006;2022-10-17T11:05:59;100840.41;;;32.25;43.58
5522;BME280;2783;48.730;8.006;2022-10-17T11:08:28;100836.94;;;32.07;44.79
5522;BME280;2783;48.730;8.006;2022-10-17T11:11:14;100840.09;;;32.36;45.09
5522;BME280;2783;48.730;8.006;2022-10-17T11:13:59;100832.91;;;32.67;43.48
5522;BME280;2783;48.730;8.006;2022-10-17T11:16:35;100840.50;;;32.89;42.83
5522;BME280;2783;48.730;8.006;2022-10-17T11:19:12;100843.94;;;32.67;43.11
5522;BME280;2783;48.730;8.006;2022-10-17T11:24:14;100832.06;;;32.75;40.94
5522;BME280;2783;48.730;8.006;2022-10-17T11:26:44;100832.75;;;32.69;43.20
5522;BME280;2783;48.730;8.006;2022-10-17T11:29:12;100839.81;;;32.71;41.99
5522;BME280;2783;48.730;8.006;2022-10-17T11:31:42;100841.59;;;32.96;42.23
5522;BME280;2783;48.730;8.006;2022-10-17T11:34:24;100836.38;;;32.93;41.27
5522;BME280;2783;48.730;8.006;2022-10-17T11:36:53;100838.09;;;32.70;41.70
5522;BME280;2783;48.730;8.006;2022-10-17T11:42:09;100839.22;;;32.36;40.68
5522;BME280;2783;48.730;8.006;2022-10-17T11:44:38;100842.50;;;32.31;41.30
5522;BME280;2783;48.730;8.006;2022-10-17T11:52:53;100841.00;;;32.53;41.78
5522;BME280;2783;48.730;8.006;2022-10-17T11:55:26;100847.75;;;32.66;42.38
5522;BME280;2783;48.730;8.006;2022-10-17T12:03:30;100835.00;;;33.05;40.38
5522;BME280;2783;48.730;8.006;2022-10-17T12:14:44;100831.19;;;32.82;42.66
5522;BME280;2783;48.730;8.006;2022-10-17T12:17:31;100822.41;;;32.71;40.13
5522;BME280;2783;48.730;8.006;2022-10-17T12:22:49;100807.63;;;32.72;41.96
5522;BME280;2783;48.730;8.006;2022-10-17T12:25:21;100813.13;;;32.88;39.19
5522;BME280;2783;48.730;8.006;2022-10-17T12:27:48;100808.81;;;33.17;40.71
5522;BME280;2783;48.730;8.006;2022-10-17T12:30:19;100808.59;;;33.27;40.28
5522;BME280;2783;48.730;8.006;2022-10-17T12:35:37;100812.19;;;33.52;41.10
5522;BME280;2783;48.730;8.006;2022-10-17T12:51:03;100796.91;;;33.09;38.25
5522;BME280;2783;48.730;8.006;2022-10-17T12:56:40;100791.75;;;33.06;40.53
5522;BME280;2783;48.730;8.006;2022-10-17T12:59:15;100801.59;;;33.00;39.54
5522;BME280;2783;48.730;8.006;2022-10-17T13:01:50;100794.84;;;32.79;39.42
5522;BME280;2783;48.730;8.006;2022-10-17T13:04:17;100799.03;;;32.91;40.10
5522;BME280;2783;48.730;8.006;2022-10-17T13:06:48;100792.97;;;32.95;39.93
5522;BME280;2783;48.730;8.006;2022-10-17T13:09:41;100800.91;;;33.06;40.20
5522;BME280;2783;48.730;8.006;2022-10-17T13:12:13;100801.59;;;33.00;39.24
5522;BME280;2783;48.730;8.006;2022-10-17T13:14:40;100790.38;;;32.78;38.07
5522;BME280;2783;48.730;8.006;2022-10-17T13:17:21;100786.41;;;32.72;38.25
5522;BME280;2783;48.730;8.006;2022-10-17T13:19:46;100789.84;;;32.82;39.15
5522;BME280;2783;48.730;8.006;2022-10-17T13:22:20;100785.75;;;32.78;37.63
5522;BME280;2783;48.730;8.006;2022-10-17T13:24:46;100793.31;;;32.92;38.94
5522;BME280;2783;48.730;8.006;2022-10-17T13:27:26;100798.13;;;32.74;39.12
5522;BME280;2783;48.730;8.006;2022-10-17T13:29:52;100797.09;;;32.59;38.85
5522;BME280;2783;48.730;8.006;2022-10-17T13:32:17;100788.84;;;32.51;39.10
5522;BME280;2783;48.730;8.006;2022-10-17T13:34:43;100796.44;;;32.65;38.67
5522;BME280;2783;48.730;8.006;2022-10-17T13:37:13;100796.56;;;32.40;38.37
5522;BME280;2783;48.730;8.006;2022-10-17T13:39:45;100810.53;;;32.38;39.78
5522;BME280;2783;48.730;8.006;2022-10-17T13:42:26;100797.41;;;32.32;39.56
5522;BME280;2783;48.730;8.006;2022-10-17T13:44:53;100792.53;;;32.10;39.79
5522;BME280;2783;48.730;8.006;2022-10-17T13:47:26;100791.03;;;31.82;40.27
5522;BME280;2783;48.730;8.006;2022-10-17T13:49:53;100801.88;;;31.75;40.72
5522;BME280;2783;48.730;8.006;2022-10-17T13:52:22;100804.06;;;31.64;41.91
5522;BME280;2783;48.730;8.006;2022-10-17T13:54:50;100798.13;;;31.43;41.74
5522;BME280;2783;48.730;8.006;2022-10-17T13:59:45;100804.00;;;30.61;42.17
5522;BME280;2783;48.730;8.006;2022-10-17T14:02:31;100788.78;;;30.14;43.77
5522;BME280;2783;48.730;8.006;2022-10-17T14:05:03;100797.34;;;29.57;44.59
5522;BME280;2783;48.730;8.006;2022-10-17T14:07:36;100791.31;;;29.07;47.51
5522;BME280;2783;48.730;8.006;2022-10-17T14:10:03;100791.69;;;28.66;47.23
5522;BME280;2783;48.730;8.006;2022-10-17T14:12:31;100788.50;;;28.32;47.79
5522;BME280;2783;48.730;8.006;2022-10-17T14:14:57;100793.84;;;28.15;49.06
5522;BME280;2783;48.730;8.006;2022-10-17T14:17:27;100791.63;;;27.90;48.06
5522;BME280;2783;48.730;8.006;2022-10-17T14:19:56;100782.34;;;27.72;49.79
5522;BME280;2783;48.730;8.006;2022-10-17T14:22:25;100793.56;;;27.69;50.06
5522;BME280;2783;48.730;8.006;2022-10-17T14:24:51;100792.69;;;27.59;49.33
5522;BME280;2783;48.730;8.006;2022-10-17T14:30:00;100805.28;;;27.41;51.13
5522;BME280;2783;48.730;8.006;2022-10-17T14:32:30;100802.38;;;27.33;52.27
5522;BME280;2783;48.730;8.006;2022-10-17T14:34:58;100804.28;;;27.21;53.36
5522;BME280;2783;48.730;8.006;2022-10-17T14:40:05;100797.69;;;26.93;53.76
5522;BME280;2783;48.730;8.006;2022-10-17T14:42:31;100803.53;;;26.89;54.84
5522;BME280;2783;48.730;8.006;2022-10-17T14:45:06;100809.53;;;26.83;55.85
5522;BME280;2783;48.730;8.006;2022-10-17T14:47:33;100801.66;;;26.69;54.69
5522;BME280;2783;48.730;8.006;2022-10-17T14:52:37;100812.63;;;26.58;56.65
5522;BME280;2783;48.730;8.006;2022-10-17T14:55:22;100806.97;;;26.50;54.94
5522;BME280;2783;48.730;8.006;2022-10-17T14:57:48;100811.19;;;26.43;56.48
5522;BME280;2783;48.730;8.006;2022-10-17T15:00:18;100818.69;;;26.41;57.85
5522;BME280;2783;48.730;8.006;2022-10-17T15:02:45;100818.34;;;26.34;58.16
5522;BME280;2783;48.730;8.006;2022-10-17T15:05:11;100821.69;;;26.27;57.10
5522;BME280;2783;48.730;8.006;2022-10-17T15:07:37;100820.25;;;26.23;58.63
5522;BME280;2783;48.730;8.006;2022-10-17T15:10:03;100813.84;;;26.13;61.04